Time;durP1;ratioP1;P1;durP2;ratioP2;P2;SDS_P1;SDS_P2;PMS_P1;PMS_P2;Temp;Humidity;BMP_temperature;BMP_pressure;BME280_temperature;BME280_humidity;BME280_pressure;Samples;Min_cycle;Max_cycle;Signal;HPM_P1;HPM_P2
2022/12/03 00:00:08;;;;;;;13.80;6.17;;;;;;;1.29;84.00;100889.19;4977148;28;20742;-65
2022/12/03 00:02:39;;;;;;;13.03;6.07;;;;;;;1.25;84.13;100882.91;4990204;28;20280;-65
2022/12/03 00:05:06;;;;;;;11.93;5.80;;;;;;;1.29;84.41;100884.00;4990398;28;20475;-65
2022/12/03 00:07:33;;;;;;;12.57;5.87;;;;;;;1.28;84.03;100876.97;4983649;28;20275;-65
2022/12/03 00:09:59;;;;;;;13.70;6.20;;;;;;;1.25;84.12;100880.31;4988851;28;20203;-64
2022/12/03 00:12:26;;;;;;;13.47;6.20;;;;;;;1.28;84.04;100886.50;4989478;28;20283;-65
2022/12/03 00:14:52;;;;;;;12.87;6.40;;;;;;;1.25;84.12;100882.91;4987591;28;20654;-65
2022/12/03 00:17:19;;;;;;;11.37;6.17;;;;;;;1.30;83.82;100882.28;4988499;28;20206;-65
2022/12/03 00:19:45;;;;;;;13.50;6.87;;;;;;;1.24;84.09;100868.06;4972455;28;20200;-65
2022/12/03 00:22:11;;;;;;;14.03;5.80;;;;;;;1.37;83.92;100877.50;4988823;28;20234;-65
2022/12/03 00:24:38;;;;;;;12.03;6.30;;;;;;;1.35;83.52;100873.00;4985960;28;20201;-65
2022/12/03 00:27:04;;;;;;;13.10;6.60;;;;;;;1.39;82.45;100869.75;4988274;28;20734;-66
2022/12/03 00:29:31;;;;;;;13.93;6.03;;;;;;;1.42;82.37;100875.16;4989823;28;20210;-65
2022/12/03 00:31:57;;;;;;;13.37;6.47;;;;;;;1.45;82.20;100885.75;4989554;28;20706;-65
2022/12/03 00:34:24;;;;;;;12.47;6.10;;;;;;;1.46;81.65;100879.72;4988049;28;20629;-65
2022/12/03 00:36:50;;;;;;;11.83;6.30;;;;;;;1.49;81.31;100875.56;4989433;28;20220;-64
2022/12/03 00:39:16;;;;;;;15.57;6.50;;;;;;;1.51;81.93;100873.06;4984521;28;20197;-65
2022/12/03 00:41:43;;;;;;;14.03;6.20;;;;;;;1.58;81.28;100875.19;4993126;28;20222;-65
2022/12/03 00:44:10;;;;;;;14.67;6.70;;;;;;;1.52;81.58;100873.13;4991260;28;20207;-65
2022/12/03 00:46:37;;;;;;;14.20;7.23;;;;;;;1.53;81.86;100869.72;4992598;28;20195;-65
2022/12/03 00:49:03;;;;;;;18.10;7.57;;;;;;;1.53;81.42;100876.66;4992599;28;20197;-65
2022/12/03 00:51:29;;;;;;;13.90;6.70;;;;;;;1.64;81.32;100877.28;4993251;28;20667;-65
2022/12/03 00:53:56;;;;;;;14.67;7.73;;;;;;;1.56;81.78;100872.50;4992216;28;20738;-65
2022/12/03 00:56:22;;;;;;;14.40;6.83;;;;;;;1.61;81.00;100869.28;4993281;28;20239;-65
2022/12/03 00:58:48;;;;;;;14.90;7.50;;;;;;;1.68;80.88;100874.94;4990413;28;20626;-66
2022/12/03 01:01:15;;;;;;;16.70;7.53;;;;;;;1.73;80.03;100875.19;4992915;28;20223;-65
2022/12/03 01:03:41;;;;;;;16.60;7.50;;;;;;;1.67;80.72;100867.91;4991115;28;20196;-65
2022/12/03 01:06:08;;;;;;;15.47;7.97;;;;;;;1.72;81.10;100878.59;4992702;28;20288;-65
2022/12/03 01:08:34;;;;;;;17.53;8.17;;;;;;;1.69;80.51;100876.72;4992722;28;20204;-65
2022/12/03 01:11:36;;;;;;;17.57;8.70;;;;;;;1.72;80.17;100876.91;4988868;28;20228;-64
2022/12/03 01:13:49;;;;;;;17.53;7.67;;;;;;;1.76;79.31;100868.41;4992740;28;20287;-65
2022/12/03 01:16:15;;;;;;;14.93;7.43;;;;;;;1.77;79.36;100871.94;4992569;28;20548;-65
2022/12/03 01:18:42;;;;;;;17.27;7.63;;;;;;;1.75;80.03;100871.84;4990667;28;20212;-65
2022/12/03 01:21:08;;;;;;;17.17;7.20;;;;;;;1.83;79.81;100878.38;4989996;28;20200;-65
2022/12/03 01:23:34;;;;;;;16.03;7.93;;;;;;;1.75;79.22;100869.22;4991531;28;20208;-65
2022/12/03 01:26:01;;;;;;;16.67;8.03;;;;;;;1.82;79.04;100879.19;4990213;28;20609;-65
2022/12/03 01:28:28;;;;;;;16.90;8.10;;;;;;;1.85;78.67;100883.69;4991449;28;20725;-66
2022/12/03 01:33:39;;;;;;;15.53;7.63;;;;;;;1.87;78.76;100882.97;4991670;28;20640;-65
2022/12/03 01:36:05;;;;;;;20.90;8.03;;;;;;;1.93;78.51;100885.00;4992397;28;20299;-65
2022/12/03 01:38:32;;;;;;;17.13;8.40;;;;;;;1.87;78.86;100880.34;4989477;28;20288;-64
2022/12/03 01:40:58;;;;;;;16.00;7.80;;;;;;;1.95;78.68;100887.72;4991492;28;20192;-65
2022/12/03 01:43:24;;;;;;;19.23;8.80;;;;;;;1.98;77.83;100880.03;4992146;28;20624;-65
2022/12/03 01:45:51;;;;;;;17.23;7.43;;;;;;;1.97;77.28;100886.97;4992550;28;20464;-65
2022/12/03 01:48:17;;;;;;;18.60;8.00;;;;;;;1.98;78.05;100882.66;4989495;28;20719;-65
2022/12/03 01:50:44;;;;;;;18.47;8.47;;;;;;;1.95;77.75;100895.53;4991706;28;20241;-65
2022/12/03 01:53:14;;;;;;;16.30;8.00;;;;;;;2.00;77.84;100881.97;4991823;28;20688;-65
2022/12/03 01:55:42;;;;;;;17.77;8.33;;;;;;;2.03;77.88;100889.97;4988406;28;20646;-65
2022/12/03 01:58:15;;;;;;;17.10;8.03;;;;;;;1.97;77.56;100880.84;4991791;28;20208;-65
2022/12/03 02:00:41;;;;;;;18.30;8.60;;;;;;;1.96;77.56;100894.72;4990954;28;20197;-65
2022/12/03 02:03:17;;;;;;;19.47;8.53;;;;;;;2.01;77.18;100888.06;4991166;28;20248;-65
2022/12/03 02:05:43;;;;;;;18.77;8.47;;;;;;;1.99;77.01;100893.19;4992054;28;20193;-65
2022/12/03 02:08:33;;;;;;;18.53;8.30;;;;;;;2.06;77.47;100889.22;4988526;28;20283;-66
2022/12/03 02:11:19;;;;;;;18.93;8.07;;;;;;;2.01;77.40;100896.81;4990158;28;21025;-65
2022/12/03 02:13:49;;;;;;;16.27;7.47;;;;;;;2.02;77.67;100888.16;4991160;28;20284;-65
2022/12/03 02:16:16;;;;;;;17.17;8.97;;;;;;;2.02;77.64;100892.47;4989404;28;20304;-65
2022/12/03 02:18:42;;;;;;;18.93;9.27;;;;;;;2.02;77.76;100895.09;4991685;28;20212;-65
2022/12/03 02:21:30;;;;;;;18.77;9.23;;;;;;;2.00;77.48;100901.91;4991622;28;20617;-66
2022/12/03 02:24:27;;;;;;;17.10;7.87;;;;;;;2.02;77.54;100889.88;4986722;28;20291;-65
2022/12/03 02:26:53;;;;;;;18.83;8.47;;;;;;;2.07;77.47;100891.03;4983609;28;20200;-65
2022/12/03 02:29:21;;;;;;;16.70;8.30;;;;;;;2.13;76.53;100892.25;4991431;28;20232;-65
2022/12/03 02:31:47;;;;;;;15.40;8.07;;;;;;;2.07;76.59;100888.41;4986751;28;20268;-65
2022/12/03 02:34:39;;;;;;;17.80;8.53;;;;;;;2.05;77.14;100892.66;4986814;28;20235;-65
2022/12/03 02:37:10;;;;;;;16.43;7.13;;;;;;;2.11;76.24;100895.59;4979482;28;20501;-65
2022/12/03 02:39:41;;;;;;;16.67;7.50;;;;;;;2.13;75.97;100894.88;4991541;28;20322;-65
2022/12/03 02:44:56;;;;;;;18.87;8.47;;;;;;;2.13;76.17;100892.25;4990661;28;20270;-64
2022/12/03 02:47:34;;;;;;;16.23;7.83;;;;;;;2.11;76.23;100882.53;4980463;28;20615;-65
2022/12/03 02:50:01;;;;;;;16.43;7.57;;;;;;;2.13;76.48;100881.81;4968903;28;20288;-65
2022/12/03 02:52:27;;;;;;;17.03;8.10;;;;;;;2.08;76.35;100888.50;4991272;28;20232;-65
2022/12/03 02:54:54;;;;;;;17.37;8.37;;;;;;;2.13;76.42;100880.91;4990132;28;20228;-65
2022/12/03 02:57:21;;;;;;;18.40;8.63;;;;;;;2.10;76.33;100876.41;4986538;28;20361;-65
2022/12/03 02:59:47;;;;;;;18.63;8.37;;;;;;;2.10;76.29;100872.91;4980223;28;20202;-65
2022/12/03 03:02:14;;;;;;;17.70;8.10;;;;;;;2.03;76.56;100876.00;4988707;28;20307;-65
2022/12/03 03:04:41;;;;;;;15.63;7.63;;;;;;;2.09;76.38;100884.16;4988497;28;20251;-65
2022/12/03 03:07:08;;;;;;;16.13;8.23;;;;;;;2.03;76.81;100873.38;4990361;28;20283;-65
2022/12/03 03:09:35;;;;;;;15.73;7.57;;;;;;;2.08;75.93;100880.66;4990861;28;20235;-65
2022/12/03 03:12:01;;;;;;;15.50;7.87;;;;;;;2.03;76.32;100887.34;4983141;28;20283;-65
2022/12/03 03:14:28;;;;;;;15.87;8.00;;;;;;;2.14;75.74;100882.69;4980462;28;20284;-65
2022/12/03 03:16:57;;;;;;;15.07;7.37;;;;;;;2.14;75.47;100888.81;4990519;28;20304;-65
2022/12/03 03:19:24;;;;;;;17.00;8.03;;;;;;;2.09;75.57;100892.00;4990686;28;20197;-65
2022/12/03 03:21:52;;;;;;;13.63;6.63;;;;;;;2.03;75.72;100889.06;4989793;28;20217;-65
2022/12/03 03:24:20;;;;;;;17.23;8.40;;;;;;;2.03;76.00;100879.50;4981782;28;20735;-65
2022/12/03 03:26:48;;;;;;;16.47;8.27;;;;;;;2.00;76.82;100874.13;4983867;28;20192;-64
2022/12/03 03:29:14;;;;;;;14.63;6.83;;;;;;;2.13;75.50;100880.91;4990754;28;20670;-65
2022/12/03 03:31:43;;;;;;;19.47;8.27;;;;;;;2.07;75.77;100885.78;4990273;28;20303;-65
2022/12/03 03:34:10;;;;;;;14.03;7.10;;;;;;;2.06;75.69;100871.84;4985960;28;20292;-65
2022/12/03 03:36:36;;;;;;;14.07;7.60;;;;;;;2.02;76.22;100875.09;4979997;28;20619;-65
2022/12/03 03:39:04;;;;;;;17.27;8.23;;;;;;;2.09;76.16;100871.09;4981144;28;20285;-66
2022/12/03 03:41:32;;;;;;;15.00;7.10;;;;;;;2.04;75.65;100870.84;4984603;28;20227;-65
2022/12/03 03:43:59;;;;;;;13.67;7.10;;;;;;;2.03;75.97;100870.78;4980812;28;20224;-65
2022/12/03 03:46:27;;;;;;;13.57;6.83;;;;;;;2.04;75.72;100868.25;4989751;28;20280;-64
2022/12/03 03:48:53;;;;;;;16.07;7.60;;;;;;;2.06;76.04;100877.06;4963347;28;20200;-65
2022/12/03 03:51:20;;;;;;;14.47;7.07;;;;;;;2.03;76.13;100863.84;4984974;28;20307;-65
2022/12/03 03:53:48;;;;;;;13.87;6.90;;;;;;;2.02;75.97;100869.88;4990436;28;20259;-64
2022/12/03 03:56:17;;;;;;;15.97;7.60;;;;;;;2.08;76.09;100867.59;4989184;28;20216;-65
2022/12/03 03:58:43;;;;;;;11.67;6.17;;;;;;;2.13;75.72;100868.75;4989225;28;20605;-66
2022/12/03 04:01:11;;;;;;;12.77;6.50;;;;;;;2.14;75.77;100867.94;4981505;28;20197;-65
2022/12/03 04:03:38;;;;;;;13.73;6.77;;;;;;;2.12;75.92;100869.56;4982967;28;20247;-65
2022/12/03 04:06:05;;;;;;;14.30;7.00;;;;;;;2.04;76.03;100862.13;4972475;28;20266;-64
2022/12/03 04:08:31;;;;;;;11.10;6.00;;;;;;;2.05;76.20;100858.69;4988657;28;20283;-65
2022/12/03 04:13:43;;;;;;;14.87;6.87;;;;;;;2.02;76.40;100851.59;4980532;28;20225;-65
2022/12/03 04:16:09;;;;;;;14.47;6.80;;;;;;;1.95;76.20;100843.31;4990788;28;20388;-65
2022/12/03 04:18:41;;;;;;;13.93;7.10;;;;;;;1.97;76.46;100849.50;4981553;28;20201;-64
2022/12/03 04:23:57;;;;;;;14.40;6.73;;;;;;;1.95;76.29;100844.22;4990122;28;20304;-65
2022/12/03 04:29:09;;;;;;;14.00;7.00;;;;;;;1.99;76.43;100850.50;4991500;28;20205;-65
2022/12/03 04:37:05;;;;;;;12.47;5.63;;;;;;;2.04;76.30;100839.50;4988882;28;20306;-65
2022/12/03 04:39:32;;;;;;;13.77;7.03;;;;;;;2.02;76.31;100838.53;4985961;28;20235;-64
2022/12/03 04:41:58;;;;;;;13.07;6.90;;;;;;;2.03;76.16;100832.50;4991116;28;20255;-65
2022/12/03 04:44:37;;;;;;;13.67;6.47;;;;;;;1.96;76.44;100827.72;4993726;28;20322;-64
2022/12/03 04:47:12;;;;;;;13.47;6.53;;;;;;;1.97;76.84;100829.50;4989458;28;20745;-65
2022/12/03 04:49:41;;;;;;;16.63;6.60;;;;;;;1.91;76.94;100823.97;4986065;28;20201;-65
2022/12/03 04:52:09;;;;;;;15.13;6.67;;;;;;;1.97;77.17;100831.22;4985504;28;20310;-65
2022/12/03 04:54:37;;;;;;;14.17;7.20;;;;;;;1.94;77.31;100831.06;4993339;28;20604;-64
2022/12/03 04:57:05;;;;;;;14.67;6.77;;;;;;;1.91;77.22;100825.69;4991492;28;20224;-65
2022/12/03 04:59:32;;;;;;;14.90;7.33;;;;;;;1.92;77.47;100836.22;4985470;28;20287;-64
2022/12/03 05:01:58;;;;;;;15.03;7.10;;;;;;;1.96;77.50;100837.28;4987609;28;20339;-65
2022/12/03 05:04:25;;;;;;;12.97;6.90;;;;;;;2.03;76.68;100831.59;4982925;28;20204;-65
2022/12/03 05:06:52;;;;;;;15.00;6.97;;;;;;;1.96;77.12;100826.81;4991575;28;20229;-65
2022/12/03 05:09:18;;;;;;;13.77;6.83;;;;;;;2.00;76.51;100834.00;4990436;28;20284;-64
2022/12/03 05:11:45;;;;;;;12.90;6.93;;;;;;;1.95;77.37;100846.81;4991325;28;20233;-66
2022/12/03 05:14:11;;;;;;;14.30;6.83;;;;;;;2.00;77.29;100847.06;4991217;28;20244;-67
2022/12/03 05:16:38;;;;;;;12.30;7.10;;;;;;;1.99;77.44;100845.28;4983899;28;20217;-66
2022/12/03 05:19:06;;;;;;;13.60;6.67;;;;;;;1.92;78.12;100848.38;4991758;28;20288;-66
2022/12/03 05:21:34;;;;;;;12.70;6.80;;;;;;;2.00;77.47;100847.06;4972377;28;20221;-66
2022/12/03 05:24:01;;;;;;;12.03;6.23;;;;;;;1.97;77.45;100845.19;4989018;28;20205;-66
2022/12/03 05:26:28;;;;;;;12.77;6.47;;;;;;;1.94;77.15;100846.72;4991602;28;20626;-66
2022/12/03 05:28:54;;;;;;;14.83;7.03;;;;;;;1.96;77.21;100852.94;4985903;28;20280;-66
2022/12/03 05:31:20;;;;;;;13.47;6.33;;;;;;;2.00;77.14;100852.28;4985359;28;20256;-66
2022/12/03 05:33:47;;;;;;;11.13;6.20;;;;;;;1.95;76.84;100841.59;4992911;28;20205;-66
2022/12/03 05:36:14;;;;;;;14.60;6.27;;;;;;;1.97;77.11;100853.03;4988777;28;20202;-66
2022/12/03 05:38:40;;;;;;;13.63;6.47;;;;;;;1.94;77.55;100846.72;4992430;28;20203;-66
2022/12/03 05:42:52;;;;;;;13.00;6.23;;;;;;;1.93;77.53;100853.69;4992227;28;20614;-66
2022/12/03 05:43:53;;;;;;;12.70;6.10;;;;;;;1.88;77.57;100844.69;4985968;28;20237;-66
2022/12/03 05:46:20;;;;;;;14.87;6.83;;;;;;;1.96;77.56;100848.63;4968374;28;20259;-66
2022/12/03 05:48:46;;;;;;;12.67;6.30;;;;;;;1.97;77.29;100846.91;4986506;28;20727;-66
2022/12/03 05:51:12;;;;;;;10.37;5.93;;;;;;;1.99;77.12;100847.88;4974768;28;20259;-66
2022/12/03 05:53:39;;;;;;;11.60;6.80;;;;;;;1.87;76.84;100835.97;4988850;28;20197;-66
2022/12/03 05:56:05;;;;;;;13.17;6.50;;;;;;;1.91;77.51;100844.84;4991646;28;20644;-66
2022/12/03 05:58:32;;;;;;;12.13;6.43;;;;;;;1.88;77.68;100844.69;4985742;28;20312;-66
2022/12/03 06:00:58;;;;;;;13.07;5.97;;;;;;;1.86;78.10;100846.31;4987068;28;20574;-66
2022/12/03 06:03:24;;;;;;;13.43;6.93;;;;;;;1.83;77.99;100844.44;4974842;28;20284;-66
2022/12/03 06:05:51;;;;;;;11.53;6.20;;;;;;;1.89;77.34;100836.03;4991759;28;20193;-66
2022/12/03 06:08:17;;;;;;;12.63;6.77;;;;;;;1.89;77.47;100843.88;4991699;28;20211;-66
2022/12/03 06:10:44;;;;;;;12.33;6.40;;;;;;;1.85;77.31;100842.81;4987910;28;20197;-66
2022/12/03 06:13:10;;;;;;;15.33;6.53;;;;;;;1.87;77.93;100845.50;4984677;28;20319;-66
2022/12/03 06:15:37;;;;;;;11.63;6.33;;;;;;;1.86;77.63;100844.59;4988618;28;20634;-66
2022/12/03 06:18:09;;;;;;;15.43;6.90;;;;;;;1.87;77.58;100840.28;4987066;28;20304;-66
2022/12/03 06:20:35;;;;;;;11.63;6.23;;;;;;;1.83;77.94;100838.31;4988985;28;20605;-66
2022/12/03 06:23:02;;;;;;;13.47;6.60;;;;;;;1.88;77.89;100836.84;4991304;28;20748;-66
2022/12/03 06:25:28;;;;;;;12.50;6.00;;;;;;;1.96;77.31;100838.16;4990810;28;20293;-66
2022/12/03 06:27:54;;;;;;;11.47;6.30;;;;;;;2.00;77.11;100827.09;4984821;28;20276;-66
2022/12/03 06:30:21;;;;;;;12.03;5.80;;;;;;;1.96;76.86;100830.34;4989489;28;20554;-66
2022/12/03 06:32:47;;;;;;;12.83;5.97;;;;;;;1.97;76.92;100826.00;4984091;28;20712;-66
2022/12/03 06:35:13;;;;;;;14.00;6.43;;;;;;;1.86;77.12;100828.94;4985100;28;20201;-66
2022/12/03 06:37:40;;;;;;;14.40;7.00;;;;;;;1.87;77.35;100822.91;4984018;28;20216;-66
2022/12/03 06:40:07;;;;;;;13.97;6.43;;;;;;;1.87;77.63;100820.28;4989309;28;20235;-66
2022/12/03 06:42:33;;;;;;;12.30;6.83;;;;;;;1.79;77.79;100818.97;4986827;28;20261;-66
2022/12/03 06:44:59;;;;;;;15.80;6.97;;;;;;;1.88;77.68;100823.81;4990344;28;20231;-66
2022/12/03 06:47:26;;;;;;;13.53;6.87;;;;;;;1.85;77.39;100821.03;4987736;28;20196;-67
2022/12/03 06:49:52;;;;;;;13.50;6.37;;;;;;;1.87;77.57;100824.63;4987806;28;20200;-66
2022/12/03 06:52:18;;;;;;;13.00;6.60;;;;;;;1.81;77.58;100822.56;4988217;28;20307;-66
2022/12/03 06:54:45;;;;;;;14.07;6.43;;;;;;;1.84;76.94;100825.34;4989420;28;20283;-66
2022/12/03 06:57:11;;;;;;;14.57;6.70;;;;;;;1.83;77.49;100827.88;4985797;28;20220;-66
2022/12/03 06:59:37;;;;;;;14.27;7.17;;;;;;;1.72;78.14;100826.41;4971822;28;20243;-66
2022/12/03 07:02:04;;;;;;;13.63;6.83;;;;;;;1.80;77.94;100827.72;4986490;28;20652;-66
2022/12/03 07:04:30;;;;;;;13.10;7.13;;;;;;;1.74;78.00;100833.50;4988542;28;20206;-66
2022/12/03 07:06:57;;;;;;;15.90;7.87;;;;;;;1.84;77.67;100833.19;4989234;28;20201;-66
2022/12/03 07:09:23;;;;;;;17.90;7.00;;;;;;;1.82;77.85;100826.97;4990325;28;20289;-66
2022/12/03 07:11:49;;;;;;;15.67;7.27;;;;;;;1.89;78.06;100836.94;4985870;28;20236;-66
2022/12/03 07:14:16;;;;;;;17.37;7.87;;;;;;;1.87;77.61;100827.22;4987463;28;20258;-66
2022/12/03 07:16:42;;;;;;;13.70;6.90;;;;;;;1.93;77.58;100829.28;4983510;28;20212;-66
2022/12/03 07:19:09;;;;;;;15.10;7.37;;;;;;;1.96;77.48;100840.78;4981025;28;20294;-66
2022/12/03 07:21:36;;;;;;;16.33;7.63;;;;;;;1.93;77.52;100840.63;4985096;28;20721;-66
2022/12/03 07:24:03;;;;;;;16.63;8.27;;;;;;;1.97;77.55;100834.75;4987805;28;20252;-67
2022/12/03 07:26:29;;;;;;;13.97;7.33;;;;;;;1.99;77.49;100837.44;4988741;28;20293;-66
2022/12/03 07:28:56;;;;;;;16.70;7.60;;;;;;;1.96;77.34;100840.78;4988530;28;20287;-66
2022/12/03 07:31:22;;;;;;;16.70;7.57;;;;;;;1.94;77.26;100831.06;4988010;28;20604;-66
2022/12/03 07:33:49;;;;;;;17.07;8.23;;;;;;;1.98;77.36;100844.38;4988385;28;20585;-66
2022/12/03 07:36:15;;;;;;;17.87;9.03;;;;;;;2.05;77.34;100838.69;4987548;28;20212;-66
2022/12/03 07:38:42;;;;;;;18.53;8.97;;;;;;;2.11;77.42;100838.13;4967231;28;20236;-66
2022/12/03 07:41:08;;;;;;;17.93;9.23;;;;;;;2.15;76.80;100833.16;4984054;28;20231;-66
2022/12/03 07:43:34;;;;;;;22.50;10.23;;;;;;;2.25;76.90;100844.09;4983728;28;20640;-66
2022/12/03 07:46:01;;;;;;;17.10;8.47;;;;;;;2.27;76.44;100845.06;4988934;28;20201;-66
2022/12/03 07:48:27;;;;;;;18.93;8.70;;;;;;;2.24;76.31;100837.06;4985052;28;20201;-66
2022/12/03 07:50:54;;;;;;;20.73;9.60;;;;;;;2.26;75.87;100830.19;4969950;28;20204;-66
2022/12/03 07:53:20;;;;;;;19.80;8.80;;;;;;;2.33;76.29;100837.53;4987143;28;20582;-66
2022/12/03 07:55:47;;;;;;;20.03;8.33;;;;;;;2.43;75.65;100839.84;4969869;28;20201;-66
2022/12/03 07:58:13;;;;;;;18.83;8.30;;;;;;;2.44;75.58;100839.03;4983895;28;20220;-66
2022/12/03 08:00:40;;;;;;;17.27;9.07;;;;;;;2.40;75.27;100817.06;4988579;28;20201;-66
2022/12/03 08:03:06;;;;;;;18.97;8.90;;;;;;;2.56;75.33;100829.22;4986616;28;20672;-66
2022/12/03 08:05:32;;;;;;;17.47;8.10;;;;;;;2.63;74.47;100819.97;4988808;28;20288;-66
2022/12/03 08:07:59;;;;;;;16.63;8.43;;;;;;;2.68;74.24;100826.31;4987460;28;20687;-66
2022/12/03 08:10:26;;;;;;;18.67;8.30;;;;;;;2.66;74.16;100820.13;4987598;28;20243;-66
2022/12/03 08:12:55;;;;;;;18.33;9.40;;;;;;;2.72;73.84;100825.66;4447612;28;15063257;-67
2022/12/03 08:15:23;;;;;;;18.03;8.10;;;;;;;2.77;73.78;100825.06;4970785;28;20196;-67
2022/12/03 08:17:59;;;;;;;15.10;7.63;;;;;;;2.79;73.60;100825.16;4986483;28;20315;-67
2022/12/03 08:20:33;;;;;;;14.13;7.83;;;;;;;2.65;73.85;100831.41;4988008;28;20617;-66
2022/12/03 08:23:05;;;;;;;17.73;8.17;;;;;;;2.74;74.12;100829.25;4988437;28;20457;-67
2022/12/03 08:25:32;;;;;;;18.80;8.87;;;;;;;2.85;73.98;100821.97;4987580;28;20196;-67
2022/12/03 08:28:11;;;;;;;13.43;7.00;;;;;;;2.85;73.19;100825.50;4988325;28;20209;-67
2022/12/03 08:30:39;;;;;;;17.83;8.60;;;;;;;2.74;73.15;100832.75;4987011;28;20228;-66
2022/12/03 08:33:15;;;;;;;14.07;7.43;;;;;;;2.61;73.61;100825.13;4988035;28;20700;-67
2022/12/03 08:35:47;;;;;;;18.27;8.33;;;;;;;2.76;74.13;100836.34;4986883;28;20201;-67
2022/12/03 08:38:13;;;;;;;20.23;9.00;;;;;;;2.74;73.87;100835.38;4988506;28;20267;-67
2022/12/03 08:40:45;;;;;;;16.40;8.27;;;;;;;2.78;73.71;100837.34;4981516;28;20292;-66
2022/12/03 08:43:22;;;;;;;19.83;8.83;;;;;;;2.75;73.63;100828.44;4981304;28;20299;-66
2022/12/03 08:45:50;;;;;;;18.50;8.30;;;;;;;2.83;73.62;100830.66;4984487;28;20204;-66
2022/12/03 08:48:19;;;;;;;19.83;9.27;;;;;;;2.82;73.98;100825.34;4987105;28;20248;-66
2022/12/03 08:50:45;;;;;;;16.73;8.40;;;;;;;2.83;73.76;100828.03;4986678;28;20208;-67
2022/12/03 08:53:12;;;;;;;20.97;10.13;;;;;;;2.97;73.36;100831.34;4986886;28;20220;-67
2022/12/03 08:55:46;;;;;;;17.20;8.50;;;;;;;2.93;73.64;100832.00;4985856;28;20619;-66
2022/12/03 08:58:22;;;;;;;20.07;9.73;;;;;;;2.97;73.61;100830.44;4986351;28;20224;-67
2022/12/03 09:01:34;;;;;;;14.77;8.37;;;;;;;3.06;72.93;100830.91;4986281;28;20258;-67
2022/12/03 09:04:23;;;;;;;15.73;8.07;;;;;;;3.14;72.97;100832.19;4990237;28;20674;-66
2022/12/03 09:06:51;;;;;;;18.37;8.93;;;;;;;3.11;72.84;100829.41;4991101;28;20232;-66
2022/12/03 09:09:19;;;;;;;17.37;9.10;;;;;;;3.10;72.87;100828.50;4991036;28;20289;-66
2022/12/03 09:11:45;;;;;;;17.60;9.20;;;;;;;3.11;73.24;100826.78;4987771;28;20666;-66
2022/12/03 09:14:12;;;;;;;18.53;9.10;;;;;;;3.17;73.46;100832.31;4989753;28;20208;-66
2022/12/03 09:16:44;;;;;;;17.40;9.13;;;;;;;3.24;72.74;100836.16;4970092;28;20198;-66
2022/12/03 09:19:10;;;;;;;19.87;9.70;;;;;;;3.19;73.11;100838.53;4990450;28;20254;-67
2022/12/03 09:21:37;;;;;;;17.77;9.47;;;;;;;3.24;72.79;100838.78;4987430;28;20229;-65
2022/12/03 09:24:03;;;;;;;19.07;9.37;;;;;;;3.12;73.16;100837.34;4988920;28;20257;-65
2022/12/03 09:26:29;;;;;;;18.50;9.73;;;;;;;3.20;72.52;100837.72;4985850;28;20301;-65
2022/12/03 09:28:56;;;;;;;18.37;10.30;;;;;;;3.24;72.79;100839.69;4981979;28;20739;-66
2022/12/03 09:31:22;;;;;;;17.07;9.20;;;;;;;3.25;72.61;100831.00;4971013;28;20309;-66
2022/12/03 09:33:49;;;;;;;19.97;9.37;;;;;;;3.22;72.94;100833.47;4978276;28;20203;-66
2022/12/03 09:36:15;;;;;;;19.23;10.20;;;;;;;3.22;73.09;100830.88;4982678;28;20206;-66
2022/12/03 09:38:41;;;;;;;17.13;10.17;;;;;;;3.25;72.92;100830.13;4987563;28;20334;-65
2022/12/03 09:41:13;;;;;;;20.70;10.27;;;;;;;3.23;72.65;100831.75;4985344;28;20200;-66
2022/12/03 09:43:39;;;;;;;20.33;9.93;;;;;;;3.15;72.63;100813.03;4985098;28;20627;-66
2022/12/03 09:46:26;;;;;;;22.03;10.27;;;;;;;3.38;73.39;100814.19;4980237;28;20401;-65
2022/12/03 09:48:54;;;;;;;23.10;10.57;;;;;;;3.33;72.98;100823.53;4987274;28;20293;-64
2022/12/03 09:51:20;;;;;;;21.10;11.30;;;;;;;3.31;72.96;100815.59;4987772;28;20699;-64
2022/12/03 09:53:47;;;;;;;20.53;9.53;;;;;;;3.31;72.37;100802.53;4984504;28;20232;-64
2022/12/03 09:56:22;;;;;;;22.13;10.70;;;;;;;3.25;72.50;100797.00;4984621;28;20746;-65
2022/12/03 09:58:49;;;;;;;21.43;9.70;;;;;;;3.28;72.50;100777.91;4981375;28;20248;-64
2022/12/03 10:01:15;;;;;;;19.50;9.93;;;;;;;3.42;72.26;100793.47;4986648;28;20313;-65
2022/12/03 10:03:46;;;;;;;18.50;9.37;;;;;;;3.44;71.99;100789.19;4987771;28;20293;-65
2022/12/03 10:06:18;;;;;;;18.67;9.43;;;;;;;3.52;72.16;100784.31;4983179;28;20209;-65
2022/12/03 10:08:54;;;;;;;19.27;9.93;;;;;;;3.63;71.68;100777.88;4981877;28;20291;-65
2022/12/03 10:11:23;;;;;;;21.17;9.93;;;;;;;3.68;71.51;100779.00;4983388;28;20354;-65
2022/12/03 10:13:51;;;;;;;16.63;8.47;;;;;;;3.68;71.65;100772.88;4986530;28;20249;-64
2022/12/03 10:16:19;;;;;;;19.17;9.90;;;;;;;3.62;71.89;100785.69;4985704;28;20486;-65
2022/12/03 10:18:49;;;;;;;20.17;9.50;;;;;;;3.70;71.79;100781.69;4979398;28;20233;-65
2022/12/03 10:21:27;;;;;;;21.80;10.40;;;;;;;3.78;71.50;100790.78;4985821;28;20361;-65
2022/12/03 10:24:15;;;;;;;18.20;8.20;;;;;;;3.71;71.14;100786.09;4987195;28;20289;-65
2022/12/03 10:26:43;;;;;;;19.33;9.37;;;;;;;3.63;71.95;100777.00;4987808;28;20271;-64
2022/12/03 10:29:17;;;;;;;16.73;8.53;;;;;;;3.52;71.88;100783.41;4986624;28;20298;-64
2022/12/03 10:31:44;;;;;;;23.57;10.70;;;;;;;3.52;72.33;100772.94;4985482;28;20224;-64
2022/12/03 10:34:10;;;;;;;19.37;9.97;;;;;;;3.60;72.38;100779.44;4986499;28;20217;-65
2022/12/03 10:36:37;;;;;;;22.23;10.60;;;;;;;3.73;72.09;100777.50;4984796;28;20203;-65
2022/12/03 10:39:12;;;;;;;19.10;10.53;;;;;;;3.65;71.92;100764.88;4985943;28;20664;-65
2022/12/03 10:41:41;;;;;;;20.93;10.50;;;;;;;3.66;71.79;100767.56;4981836;28;20230;-65
2022/12/03 10:44:24;;;;;;;21.80;11.27;;;;;;;3.65;72.30;100765.75;4975991;28;20266;-65
2022/12/03 10:47:05;;;;;;;21.80;11.70;;;;;;;3.83;72.18;100759.56;4963174;28;20291;-65
2022/12/03 10:49:32;;;;;;;22.10;11.20;;;;;;;3.81;71.33;100751.66;4987092;28;20290;-65
2022/12/03 10:51:58;;;;;;;22.40;10.77;;;;;;;3.82;71.38;100752.53;4986451;28;20227;-65
2022/12/03 10:54:27;;;;;;;20.70;10.23;;;;;;;3.83;71.42;100751.72;4986933;28;20196;-64
2022/12/03 10:56:53;;;;;;;22.83;10.63;;;;;;;3.88;71.54;100750.19;4985711;28;20595;-65
2022/12/03 10:59:22;;;;;;;23.00;10.60;;;;;;;3.88;71.60;100752.81;4985537;28;20584;-65
2022/12/03 11:01:50;;;;;;;18.40;10.50;;;;;;;3.86;71.62;100749.22;4981357;28;20242;-65
2022/12/03 11:04:31;;;;;;;21.00;10.77;;;;;;;3.78;71.27;100744.53;4987145;28;20224;-64
2022/12/03 11:07:01;;;;;;;21.37;9.93;;;;;;;3.90;71.34;100746.81;4984714;28;20270;-65
2022/12/03 11:09:31;;;;;;;21.33;10.80;;;;;;;3.86;71.79;100739.66;4986634;28;20253;-65
2022/12/03 11:12:16;;;;;;;21.37;10.67;;;;;;;3.74;72.11;100726.91;4986059;28;20257;-65
2022/12/03 11:14:52;;;;;;;20.17;10.97;;;;;;;3.73;72.60;100735.59;4987152;28;20307;-64
2022/12/03 11:17:43;;;;;;;20.60;11.20;;;;;;;3.82;71.78;100734.19;4984856;28;20623;-63
2022/12/03 11:20:15;;;;;;;22.40;10.87;;;;;;;3.74;72.95;100733.84;4985356;28;20203;-63
2022/12/03 11:22:52;;;;;;;20.73;10.77;;;;;;;3.75;72.77;100738.28;4982213;28;20221;-63
2022/12/03 11:25:30;;;;;;;21.30;11.13;;;;;;;3.66;73.10;100730.91;4982662;28;20570;-64
2022/12/03 11:28:14;;;;;;;21.30;11.27;;;;;;;3.74;72.60;100739.09;4981030;28;20207;-64
2022/12/03 11:30:50;;;;;;;21.27;11.27;;;;;;;3.77;72.19;100734.00;4978316;28;20227;-65
2022/12/03 11:33:21;;;;;;;24.03;11.60;;;;;;;3.74;71.94;100729.50;4973971;28;20226;-64
2022/12/03 11:36:02;;;;;;;21.33;11.00;;;;;;;3.60;72.53;100724.44;4972495;28;20216;-65
2022/12/03 11:38:44;;;;;;;23.83;10.63;;;;;;;3.60;72.60;100725.38;4976562;28;20629;-63
2022/12/03 11:41:28;;;;;;;25.37;12.10;;;;;;;3.46;73.02;100726.44;4973377;28;20220;-67
2022/12/03 11:43:55;;;;;;;22.17;11.30;;;;;;;3.43;73.57;100728.91;4975583;28;20286;-64
2022/12/03 11:46:36;;;;;;;22.90;11.63;;;;;;;3.43;73.51;100721.06;4963317;28;20238;-64
2022/12/03 11:49:22;;;;;;;21.60;12.07;;;;;;;3.46;73.85;100718.56;4973519;28;20201;-65
2022/12/03 11:51:48;;;;;;;25.67;12.90;;;;;;;3.44;73.88;100718.50;4970626;28;20231;-65